sensor_id;sensor_type;location;lat;lon;timestamp;pressure;altitude;pressure_sealevel;temperature;humidity
64139;BME280;50435;43.700;-79.318;2023-04-28T00:01:12;100588.12;;;12.04;34.68
64139;BME280;50435;43.700;-79.318;2023-04-28T00:03:40;100582.32;;;12.27;35.00
64139;BME280;50435;43.700;-79.318;2023-04-28T00:06:08;100576.16;;;11.80;35.21
64139;BME280;50435;43.700;-79.318;2023-04-28T00:08:36;100576.72;;;12.06;35.13
64139;BME280;50435;43.700;-79.318;2023-04-28T00:11:03;100576.04;;;11.86;35.08
64139;BME280;50435;43.700;-79.318;2023-04-28T00:13:34;100579.26;;;12.04;35.11
64139;BME280;50435;43.700;-79.318;2023-04-28T00:16:02;100588.11;;;11.56;35.20
64139;BME280;50435;43.700;-79.318;2023-04-28T00:18:29;100590.82;;;12.01;35.25
64139;BME280;50435;43.700;-79.318;2023-04-28T00:20:57;100588.83;;;11.26;35.59
64139;BME280;50435;43.700;-79.318;2023-04-28T00:23:25;100584.90;;;11.53;35.27
64139;BME280;50435;43.700;-79.318;2023-04-28T00:25:52;100581.44;;;11.22;35.61
64139;BME280;50435;43.700;-79.318;2023-04-28T00:28:20;100578.90;;;11.39;36.05
64139;BME280;50435;43.700;-79.318;2023-04-28T00:30:48;100580.91;;;9.81;36.14
64139;BME280;50435;43.700;-79.318;2023-04-28T00:33:15;100584.36;;;11.33;36.12
64139;BME280;50435;43.700;-79.318;2023-04-28T00:35:43;100582.00;;;10.48;36.21
64139;BME280;50435;43.700;-79.318;2023-04-28T00:38:11;100584.38;;;10.85;36.57
64139;BME280;50435;43.700;-79.318;2023-04-28T00:40:39;100585.69;;;10.81;36.44
64139;BME280;50435;43.700;-79.318;2023-04-28T00:43:06;100585.10;;;10.91;36.59
64139;BME280;50435;43.700;-79.318;2023-04-28T00:45:34;100585.05;;;11.21;36.44
64139;BME280;50435;43.700;-79.318;2023-04-28T00:48:02;100580.87;;;10.65;36.65
64139;BME280;50435;43.700;-79.318;2023-04-28T00:50:30;100576.69;;;10.73;36.82
64139;BME280;50435;43.700;-79.318;2023-04-28T00:52:59;100573.55;;;10.07;36.65
64139;BME280;50435;43.700;-79.318;2023-04-28T00:55:31;100576.61;;;11.21;36.65
64139;BME280;50435;43.700;-79.318;2023-04-28T00:57:59;100573.11;;;9.94;36.67
64139;BME280;50435;43.700;-79.318;2023-04-28T01:00:26;100570.13;;;10.59;36.98
64139;BME280;50435;43.700;-79.318;2023-04-28T01:02:54;100568.16;;;9.74;36.91
64139;BME280;50435;43.700;-79.318;2023-04-28T01:05:24;100568.39;;;10.73;36.88
64139;BME280;50435;43.700;-79.318;2023-04-28T01:07:52;100572.14;;;10.26;36.91
64139;BME280;50435;43.700;-79.318;2023-04-28T01:10:19;100582.29;;;10.63;36.83
64139;BME280;50435;43.700;-79.318;2023-04-28T01:12:47;100584.45;;;9.31;36.67
64139;BME280;50435;43.700;-79.318;2023-04-28T01:15:16;100588.25;;;10.59;36.81
64139;BME280;50435;43.700;-79.318;2023-04-28T01:17:44;100585.24;;;9.43;36.75
64139;BME280;50435;43.700;-79.318;2023-04-28T01:20:12;100585.13;;;10.24;36.86
64139;BME280;50435;43.700;-79.318;2023-04-28T01:22:40;100586.26;;;10.20;36.82
64139;BME280;50435;43.700;-79.318;2023-04-28T01:25:08;100587.18;;;10.19;36.51
64139;BME280;50435;43.700;-79.318;2023-04-28T01:27:36;100590.71;;;10.49;36.76
64139;BME280;50435;43.700;-79.318;2023-04-28T01:30:04;100589.85;;;9.87;36.88
64139;BME280;50435;43.700;-79.318;2023-04-28T01:32:32;100588.70;;;9.90;36.99
64139;BME280;50435;43.700;-79.318;2023-04-28T01:34:59;100589.82;;;10.66;36.90
64139;BME280;50435;43.700;-79.318;2023-04-28T01:37:27;100589.18;;;10.10;37.33
64139;BME280;50435;43.700;-79.318;2023-04-28T01:39:55;100595.63;;;9.52;37.15
64139;BME280;50435;43.700;-79.318;2023-04-28T01:42:23;100593.20;;;10.03;37.23
64139;BME280;50435;43.700;-79.318;2023-04-28T01:44:51;100590.61;;;9.52;37.27
64139;BME280;50435;43.700;-79.318;2023-04-28T01:47:18;100590.31;;;9.93;37.32
64139;BME280;50435;43.700;-79.318;2023-04-28T01:49:46;100587.71;;;8.65;37.76
64139;BME280;50435;43.700;-79.318;2023-04-28T01:52:14;100588.58;;;9.68;37.59
64139;BME280;50435;43.700;-79.318;2023-04-28T01:54:41;100586.32;;;9.36;37.60
64139;BME280;50435;43.700;-79.318;2023-04-28T01:57:09;100579.96;;;9.66;37.55
64139;BME280;50435;43.700;-79.318;2023-04-28T01:59:36;100575.82;;;9.85;37.64
64139;BME280;50435;43.700;-79.318;2023-04-28T02:02:04;100571.33;;;9.56;37.72
64139;BME280;50435;43.700;-79.318;2023-04-28T02:04:31;100569.49;;;9.86;38.00
64139;BME280;50435;43.700;-79.318;2023-04-28T02:06:58;100573.81;;;9.05;37.76
64139;BME280;50435;43.700;-79.318;2023-04-28T02:09:25;100576.78;;;9.81;37.73
64139;BME280;50435;43.700;-79.318;2023-04-28T02:11:52;100576.29;;;7.95;37.92
64139;BME280;50435;43.700;-79.318;2023-04-28T02:14:20;100573.56;;;9.71;37.99
64139;BME280;50435;43.700;-79.318;2023-04-28T02:16:47;100570.67;;;8.28;38.08
64139;BME280;50435;43.700;-79.318;2023-04-28T02:19:15;100574.20;;;9.71;38.11
64139;BME280;50435;43.700;-79.318;2023-04-28T02:21:43;100567.39;;;9.17;38.23
64139;BME280;50435;43.700;-79.318;2023-04-28T02:24:10;100566.15;;;9.14;38.41
64139;BME280;50435;43.700;-79.318;2023-04-28T02:26:38;100569.00;;;9.33;38.54
64139;BME280;50435;43.700;-79.318;2023-04-28T02:29:06;100568.99;;;8.82;38.60
64139;BME280;50435;43.700;-79.318;2023-04-28T02:31:33;100566.51;;;9.41;38.48
64139;BME280;50435;43.700;-79.318;2023-04-28T02:34:00;100565.63;;;8.66;38.63
64139;BME280;50435;43.700;-79.318;2023-04-28T02:36:28;100566.19;;;9.35;38.55
64139;BME280;50435;43.700;-79.318;2023-04-28T02:38:56;100570.11;;;8.49;38.53
64139;BME280;50435;43.700;-79.318;2023-04-28T02:41:23;100570.50;;;9.45;38.38
64139;BME280;50435;43.700;-79.318;2023-04-28T02:43:50;100563.73;;;8.06;38.73
64139;BME280;50435;43.700;-79.318;2023-04-28T02:46:18;100562.12;;;9.25;38.59
64139;BME280;50435;43.700;-79.318;2023-04-28T02:48:45;100564.67;;;8.18;38.91
64139;BME280;50435;43.700;-79.318;2023-04-28T02:51:12;100564.06;;;9.00;38.94
64139;BME280;50435;43.700;-79.318;2023-04-28T02:53:40;100562.48;;;9.01;38.94
64139;BME280;50435;43.700;-79.318;2023-04-28T02:56:07;100557.16;;;9.13;38.81
64139;BME280;50435;43.700;-79.318;2023-04-28T02:58:35;100557.91;;;9.26;38.92
64139;BME280;50435;43.700;-79.318;2023-04-28T03:01:02;100558.03;;;8.84;38.82
64139;BME280;50435;43.700;-79.318;2023-04-28T03:03:30;100555.30;;;9.08;38.84
64139;BME280;50435;43.700;-79.318;2023-04-28T03:05:58;100553.76;;;8.39;39.00
64139;BME280;50435;43.700;-79.318;2023-04-28T03:08:25;100552.49;;;8.94;38.85
64139;BME280;50435;43.700;-79.318;2023-04-28T03:10:53;100552.36;;;8.80;38.73
64139;BME280;50435;43.700;-79.318;2023-04-28T03:13:21;100551.76;;;9.19;38.90
64139;BME280;50435;43.700;-79.318;2023-04-28T03:15:48;100549.84;;;7.43;38.90
64139;BME280;50435;43.700;-79.318;2023-04-28T03:18:15;100553.33;;;8.92;38.86
64139;BME280;50435;43.700;-79.318;2023-04-28T03:20:42;100544.23;;;8.39;38.82
64139;BME280;50435;43.700;-79.318;2023-04-28T03:23:10;100545.29;;;8.92;38.81
64139;BME280;50435;43.700;-79.318;2023-04-28T03:25:37;100536.15;;;9.12;38.82
64139;BME280;50435;43.700;-79.318;2023-04-28T03:28:05;100539.84;;;8.79;38.91
64139;BME280;50435;43.700;-79.318;2023-04-28T03:30:33;100536.40;;;9.05;39.00
64139;BME280;50435;43.700;-79.318;2023-04-28T03:33:00;100534.48;;;8.34;38.97
64139;BME280;50435;43.700;-79.318;2023-04-28T03:35:28;100533.28;;;8.78;39.04
64139;BME280;50435;43.700;-79.318;2023-04-28T03:37:55;100529.98;;;7.84;39.28
64139;BME280;50435;43.700;-79.318;2023-04-28T03:40:22;100526.96;;;9.16;39.74
64139;BME280;50435;43.700;-79.318;2023-04-28T03:42:50;100524.86;;;7.12;40.05
64139;BME280;50435;43.700;-79.318;2023-04-28T03:45:18;100524.24;;;8.64;40.05
64139;BME280;50435;43.700;-79.318;2023-04-28T03:47:45;100516.52;;;7.83;40.54
64139;BME280;50435;43.700;-79.318;2023-04-28T03:50:13;100522.03;;;8.71;40.04
64139;BME280;50435;43.700;-79.318;2023-04-28T03:52:40;100523.99;;;9.18;40.01
64139;BME280;50435;43.700;-79.318;2023-04-28T03:55:09;100527.52;;;8.64;40.22
64139;BME280;50435;43.700;-79.318;2023-04-28T03:57:36;100532.65;;;8.71;40.02
64139;BME280;50435;43.700;-79.318;2023-04-28T04:00:05;100534.59;;;8.73;40.05
64139;BME280;50435;43.700;-79.318;2023-04-28T04:02:33;100525.74;;;9.07;40.05
64139;BME280;50435;43.700;-79.318;2023-04-28T04:05:00;100520.09;;;8.63;39.68
64139;BME280;50435;43.700;-79.318;2023-04-28T04:07:27;100522.73;;;9.28;39.28
64139;BME280;50435;43.700;-79.318;2023-04-28T04:09:54;100519.06;;;6.80;39.73
64139;BME280;50435;43.700;-79.318;2023-04-28T04:12:22;100518.84;;;8.73;39.32
64139;BME280;50435;43.700;-79.318;2023-04-28T04:14:50;100516.54;;;7.38;39.55
64139;BME280;50435;43.700;-79.318;2023-04-28T04:17:17;100518.96;;;8.89;39.56
64139;BME280;50435;43.700;-79.318;2023-04-28T04:19:44;100519.57;;;8.06;40.00
64139;BME280;50435;43.700;-79.318;2023-04-28T04:22:12;100522.35;;;8.76;39.78
64139;BME280;50435;43.700;-79.318;2023-04-28T04:24:39;100517.98;;;8.89;40.07
64139;BME280;50435;43.700;-79.318;2023-04-28T04:27:07;100517.86;;;8.51;39.97
64139;BME280;50435;43.700;-79.318;2023-04-28T04:29:35;100518.63;;;8.97;39.85
64139;BME280;50435;43.700;-79.318;2023-04-28T04:32:03;100517.46;;;8.36;40.10
64139;BME280;50435;43.700;-79.318;2023-04-28T04:34:30;100512.41;;;8.65;40.55
64139;BME280;50435;43.700;-79.318;2023-04-28T04:36:58;100513.03;;;7.84;40.25
64139;BME280;50435;43.700;-79.318;2023-04-28T04:39:25;100506.76;;;8.62;40.69
64139;BME280;50435;43.700;-79.318;2023-04-28T04:41:53;100505.41;;;7.37;40.69
64139;BME280;50435;43.700;-79.318;2023-04-28T04:44:20;100504.16;;;8.14;40.61
64139;BME280;50435;43.700;-79.318;2023-04-28T04:46:48;100507.28;;;7.17;40.93
64139;BME280;50435;43.700;-79.318;2023-04-28T04:49:15;100505.15;;;8.67;40.53
64139;BME280;50435;43.700;-79.318;2023-04-28T04:51:43;100501.54;;;7.57;40.42
64139;BME280;50435;43.700;-79.318;2023-04-28T04:54:10;100505.13;;;7.94;40.82
64139;BME280;50435;43.700;-79.318;2023-04-28T04:56:37;100499.88;;;8.33;40.40
64139;BME280;50435;43.700;-79.318;2023-04-28T04:59:04;100493.35;;;7.92;40.83
64139;BME280;50435;43.700;-79.318;2023-04-28T05:01:31;100485.58;;;8.28;40.96
64139;BME280;50435;43.700;-79.318;2023-04-28T05:03:59;100486.67;;;7.80;40.98
64139;BME280;50435;43.700;-79.318;2023-04-28T05:06:26;100479.38;;;8.38;40.38
64139;BME280;50435;43.700;-79.318;2023-04-28T05:08:53;100480.48;;;7.30;40.90
64139;BME280;50435;43.700;-79.318;2023-04-28T05:11:20;100472.97;;;8.20;41.00
64139;BME280;50435;43.700;-79.318;2023-04-28T05:13:48;100472.31;;;6.51;40.93
64139;BME280;50435;43.700;-79.318;2023-04-28T05:16:15;100464.28;;;7.70;40.71
64139;BME280;50435;43.700;-79.318;2023-04-28T05:18:43;100458.16;;;7.22;41.11
64139;BME280;50435;43.700;-79.318;2023-04-28T05:21:10;100460.53;;;7.63;41.12
64139;BME280;50435;43.700;-79.318;2023-04-28T05:23:38;100462.01;;;8.20;40.95
64139;BME280;50435;43.700;-79.318;2023-04-28T05:26:06;100465.34;;;7.90;40.66
64139;BME280;50435;43.700;-79.318;2023-04-28T05:28:33;100466.93;;;8.07;40.61
64139;BME280;50435;43.700;-79.318;2023-04-28T05:31:01;100463.61;;;7.55;40.80
64139;BME280;50435;43.700;-79.318;2023-04-28T05:33:28;100462.75;;;8.02;41.51
64139;BME280;50435;43.700;-79.318;2023-04-28T05:35:55;100459.97;;;6.99;41.35
64139;BME280;50435;43.700;-79.318;2023-04-28T05:38:22;100455.61;;;7.68;41.48
64139;BME280;50435;43.700;-79.318;2023-04-28T05:40:49;100449.35;;;6.23;41.53
64139;BME280;50435;43.700;-79.318;2023-04-28T05:43:16;100446.02;;;7.75;41.34
64139;BME280;50435;43.700;-79.318;2023-04-28T05:45:43;100447.10;;;7.13;41.45
64139;BME280;50435;43.700;-79.318;2023-04-28T05:48:11;100443.44;;;7.76;41.90
64139;BME280;50435;43.700;-79.318;2023-04-28T05:50:39;100444.17;;;7.79;41.74
64139;BME280;50435;43.700;-79.318;2023-04-28T05:53:06;100444.91;;;7.42;41.74
64139;BME280;50435;43.700;-79.318;2023-04-28T05:55:34;100441.25;;;8.06;41.54
64139;BME280;50435;43.700;-79.318;2023-04-28T05:58:02;100436.72;;;8.08;41.31
64139;BME280;50435;43.700;-79.318;2023-04-28T06:00:29;100440.51;;;7.79;41.97
64139;BME280;50435;43.700;-79.318;2023-04-28T06:02:56;100436.92;;;7.04;41.79
64139;BME280;50435;43.700;-79.318;2023-04-28T06:05:24;100430.28;;;8.03;41.71
64139;BME280;50435;43.700;-79.318;2023-04-28T06:07:52;100429.85;;;6.67;41.61
64139;BME280;50435;43.700;-79.318;2023-04-28T06:10:20;100429.31;;;8.08;41.27
64139;BME280;50435;43.700;-79.318;2023-04-28T06:12:47;100415.84;;;6.99;41.39
64139;BME280;50435;43.700;-79.318;2023-04-28T06:15:15;100413.82;;;7.78;41.05
64139;BME280;50435;43.700;-79.318;2023-04-28T06:17:43;100408.05;;;7.18;40.93
64139;BME280;50435;43.700;-79.318;2023-04-28T06:20:12;100407.35;;;8.37;40.69
64139;BME280;50435;43.700;-79.318;2023-04-28T06:22:39;100406.74;;;8.55;40.88
64139;BME280;50435;43.700;-79.318;2023-04-28T06:25:07;100402.80;;;8.08;41.16
64139;BME280;50435;43.700;-79.318;2023-04-28T06:27:35;100405.73;;;8.32;40.79
64139;BME280;50435;43.700;-79.318;2023-04-28T06:30:02;100400.93;;;7.94;40.91
64139;BME280;50435;43.700;-79.318;2023-04-28T06:32:30;100398.40;;;8.47;40.52
64139;BME280;50435;43.700;-79.318;2023-04-28T06:34:58;100396.14;;;7.91;40.54
64139;BME280;50435;43.700;-79.318;2023-04-28T06:37:25;100391.89;;;8.21;40.85
64139;BME280;50435;43.700;-79.318;2023-04-28T06:39:53;100390.84;;;6.89;40.97
64139;BME280;50435;43.700;-79.318;2023-04-28T06:42:20;100392.68;;;8.53;40.61
64139;BME280;50435;43.700;-79.318;2023-04-28T06:44:48;100394.21;;;6.91;41.16
64139;BME280;50435;43.700;-79.318;2023-04-28T06:47:15;100392.86;;;8.32;41.19
64139;BME280;50435;43.700;-79.318;2023-04-28T06:49:43;100385.57;;;7.45;40.74
64139;BME280;50435;43.700;-79.318;2023-04-28T06:52:11;100382.36;;;7.89;40.61
64139;BME280;50435;43.700;-79.318;2023-04-28T06:54:39;100380.99;;;8.37;41.02
64139;BME280;50435;43.700;-79.318;2023-04-28T06:57:06;100376.18;;;8.36;40.85
64139;BME280;50435;43.700;-79.318;2023-04-28T06:59:34;100380.14;;;8.27;41.09
64139;BME280;50435;43.700;-79.318;2023-04-28T07:02:02;100381.40;;;7.78;40.87
64139;BME280;50435;43.700;-79.318;2023-04-28T07:04:29;100369.43;;;8.02;40.84
64139;BME280;50435;43.700;-79.318;2023-04-28T07:06:57;100365.31;;;7.78;40.77
64139;BME280;50435;43.700;-79.318;2023-04-28T07:09:25;100371.84;;;8.27;40.79
64139;BME280;50435;43.700;-79.318;2023-04-28T07:11:52;100365.72;;;8.21;41.18
64139;BME280;50435;43.700;-79.318;2023-04-28T07:14:20;100357.50;;;8.36;41.27
64139;BME280;50435;43.700;-79.318;2023-04-28T07:16:48;100360.38;;;6.91;40.47
64139;BME280;50435;43.700;-79.318;2023-04-28T07:19:16;100348.89;;;8.09;40.57
64139;BME280;50435;43.700;-79.318;2023-04-28T07:21:43;100349.70;;;7.16;40.30
64139;BME280;50435;43.700;-79.318;2023-04-28T07:24:11;100348.21;;;8.25;40.03
64139;BME280;50435;43.700;-79.318;2023-04-28T07:26:38;100352.45;;;8.27;39.81
64139;BME280;50435;43.700;-79.318;2023-04-28T07:29:06;100349.45;;;8.26;40.36
64139;BME280;50435;43.700;-79.318;2023-04-28T07:31:33;100350.98;;;8.30;40.22
64139;BME280;50435;43.700;-79.318;2023-04-28T07:34:01;100342.40;;;7.55;40.00
64139;BME280;50435;43.700;-79.318;2023-04-28T07:36:28;100333.15;;;8.13;40.15
64139;BME280;50435;43.700;-79.318;2023-04-28T07:38:56;100335.62;;;8.17;39.94
64139;BME280;50435;43.700;-79.318;2023-04-28T07:41:25;100334.53;;;8.10;39.88
64139;BME280;50435;43.700;-79.318;2023-04-28T07:43:53;100333.09;;;6.71;39.69
64139;BME280;50435;43.700;-79.318;2023-04-28T07:46:21;100337.65;;;8.17;39.79
64139;BME280;50435;43.700;-79.318;2023-04-28T07:48:48;100332.07;;;6.35;39.84
64139;BME280;50435;43.700;-79.318;2023-04-28T07:51:16;100333.22;;;8.13;39.88
64139;BME280;50435;43.700;-79.318;2023-04-28T07:53:44;100330.67;;;7.30;40.02
64139;BME280;50435;43.700;-79.318;2023-04-28T07:56:11;100339.03;;;8.24;39.60
64139;BME280;50435;43.700;-79.318;2023-04-28T07:58:39;100332.24;;;8.16;39.50
64139;BME280;50435;43.700;-79.318;2023-04-28T08:01:06;100330.40;;;7.71;39.43
64139;BME280;50435;43.700;-79.318;2023-04-28T08:03:33;100336.59;;;8.07;39.89
64139;BME280;50435;43.700;-79.318;2023-04-28T08:06:00;100334.81;;;8.06;39.71
64139;BME280;50435;43.700;-79.318;2023-04-28T08:08:29;100327.14;;;8.66;39.68
64139;BME280;50435;43.700;-79.318;2023-04-28T08:10:57;100326.74;;;6.67;39.70
64139;BME280;50435;43.700;-79.318;2023-04-28T08:13:24;100319.92;;;8.30;39.45
64139;BME280;50435;43.700;-79.318;2023-04-28T08:15:52;100316.38;;;6.81;39.71
64139;BME280;50435;43.700;-79.318;2023-04-28T08:18:19;100308.70;;;7.98;39.77
64139;BME280;50435;43.700;-79.318;2023-04-28T08:20:47;100303.83;;;6.68;39.85
64139;BME280;50435;43.700;-79.318;2023-04-28T08:23:15;100304.80;;;8.12;39.82
64139;BME280;50435;43.700;-79.318;2023-04-28T08:25:42;100304.34;;;7.61;39.82
64139;BME280;50435;43.700;-79.318;2023-04-28T08:28:10;100302.70;;;8.11;39.81
64139;BME280;50435;43.700;-79.318;2023-04-28T08:30:37;100301.86;;;8.18;40.33
64139;BME280;50435;43.700;-79.318;2023-04-28T08:33:05;100303.92;;;7.76;40.17
64139;BME280;50435;43.700;-79.318;2023-04-28T08:35:32;100300.66;;;8.15;39.97
64139;BME280;50435;43.700;-79.318;2023-04-28T08:37:59;100302.98;;;7.61;40.15
64139;BME280;50435;43.700;-79.318;2023-04-28T08:40:26;100305.96;;;8.13;40.03
64139;BME280;50435;43.700;-79.318;2023-04-28T08:42:54;100314.61;;;6.67;40.69
64139;BME280;50435;43.700;-79.318;2023-04-28T08:45:23;100317.58;;;8.13;40.45
64139;BME280;50435;43.700;-79.318;2023-04-28T08:47:50;100315.61;;;6.58;40.44
64139;BME280;50435;43.700;-79.318;2023-04-28T08:50:20;100312.39;;;8.19;40.78
64139;BME280;50435;43.700;-79.318;2023-04-28T08:52:51;100315.19;;;6.69;40.48
64139;BME280;50435;43.700;-79.318;2023-04-28T08:55:19;100312.08;;;8.14;40.60
64139;BME280;50435;43.700;-79.318;2023-04-28T08:57:49;100300.05;;;6.74;41.12
64139;BME280;50435;43.700;-79.318;2023-04-28T09:00:17;100295.38;;;8.06;41.08
64139;BME280;50435;43.700;-79.318;2023-04-28T09:02:44;100298.59;;;7.12;41.48
64139;BME280;50435;43.700;-79.318;2023-04-28T09:05:12;100298.47;;;8.12;41.23
64139;BME280;50435;43.700;-79.318;2023-04-28T09:07:42;100303.52;;;8.05;41.30
64139;BME280;50435;43.700;-79.318;2023-04-28T09:10:20;100304.55;;;7.88;41.77
64139;BME280;50435;43.700;-79.318;2023-04-28T09:12:50;100306.74;;;6.83;41.51
64139;BME280;50435;43.700;-79.318;2023-04-28T09:15:26;100305.09;;;8.21;42.00
64139;BME280;50435;43.700;-79.318;2023-04-28T09:17:54;100303.83;;;6.48;42.04
64139;BME280;50435;43.700;-79.318;2023-04-28T09:20:22;100303.14;;;8.24;41.76
64139;BME280;50435;43.700;-79.318;2023-04-28T09:22:52;100307.32;;;6.68;42.25
64139;BME280;50435;43.700;-79.318;2023-04-28T09:25:21;100303.58;;;7.94;42.41
64139;BME280;50435;43.700;-79.318;2023-04-28T09:27:49;100303.31;;;6.57;42.49
64139;BME280;50435;43.700;-79.318;2023-04-28T09:30:17;100309.00;;;7.59;42.49
64139;BME280;50435;43.700;-79.318;2023-04-28T09:32:45;100304.52;;;6.66;42.86
64139;BME280;50435;43.700;-79.318;2023-04-28T09:35:12;100303.77;;;7.81;42.64
64139;BME280;50435;43.700;-79.318;2023-04-28T09:37:40;100300.24;;;7.95;42.79
64139;BME280;50435;43.700;-79.318;2023-04-28T09:40:09;100300.14;;;7.21;43.04
64139;BME280;50435;43.700;-79.318;2023-04-28T09:42:38;100295.65;;;7.69;43.09
64139;BME280;50435;43.700;-79.318;2023-04-28T09:45:08;100291.19;;;7.02;43.61
64139;BME280;50435;43.700;-79.318;2023-04-28T09:47:38;100293.81;;;7.46;43.53
64139;BME280;50435;43.700;-79.318;2023-04-28T09:50:07;100290.48;;;7.18;44.26
64139;BME280;50435;43.700;-79.318;2023-04-28T09:52:36;100291.09;;;7.53;44.14
64139;BME280;50435;43.700;-79.318;2023-04-28T09:55:05;100295.62;;;7.46;43.60
64139;BME280;50435;43.700;-79.318;2023-04-28T09:57:35;100292.94;;;7.50;44.04
64139;BME280;50435;43.700;-79.318;2023-04-28T10:00:05;100300.99;;;6.59;44.27
64139;BME280;50435;43.700;-79.318;2023-04-28T10:02:35;100308.85;;;7.47;44.00
64139;BME280;50435;43.700;-79.318;2023-04-28T10:05:04;100310.16;;;6.70;43.25
64139;BME280;50435;43.700;-79.318;2023-04-28T10:07:32;100312.92;;;7.45;44.11
64139;BME280;50435;43.700;-79.318;2023-04-28T10:10:00;100309.13;;;6.84;43.94
64139;BME280;50435;43.700;-79.318;2023-04-28T10:12:28;100309.95;;;7.47;44.14
64139;BME280;50435;43.700;-79.318;2023-04-28T10:14:56;100310.04;;;6.27;44.26
64139;BME280;50435;43.700;-79.318;2023-04-28T10:17:24;100298.90;;;7.30;44.31
64139;BME280;50435;43.700;-79.318;2023-04-28T10:19:52;100297.97;;;6.19;43.50
64139;BME280;50435;43.700;-79.318;2023-04-28T10:22:34;100289.99;;;7.45;43.73
64139;BME280;50435;43.700;-79.318;2023-04-28T10:25:24;100287.15;;;7.04;43.74
64139;BME280;50435;43.700;-79.318;2023-04-28T10:27:52;100280.41;;;6.03;43.86
64139;BME280;50435;43.700;-79.318;2023-04-28T10:30:21;100283.83;;;7.56;43.59
64139;BME280;50435;43.700;-79.318;2023-04-28T10:33:22;100280.35;;;6.17;44.09
64139;BME280;50435;43.700;-79.318;2023-04-28T10:35:49;100273.43;;;6.14;43.83
64139;BME280;50435;43.700;-79.318;2023-04-28T10:38:17;100273.63;;;7.68;43.53
64139;BME280;50435;43.700;-79.318;2023-04-28T10:40:46;100271.41;;;6.55;43.77
64139;BME280;50435;43.700;-79.318;2023-04-28T10:43:32;100278.11;;;7.50;43.81
64139;BME280;50435;43.700;-79.318;2023-04-28T10:46:04;100289.14;;;7.35;43.61
64139;BME280;50435;43.700;-79.318;2023-04-28T10:49:04;100291.78;;;7.77;43.33
64139;BME280;50435;43.700;-79.318;2023-04-28T10:51:32;100285.40;;;7.74;43.47
64139;BME280;50435;43.700;-79.318;2023-04-28T10:54:09;100284.55;;;7.31;43.27
64139;BME280;50435;43.700;-79.318;2023-04-28T10:56:37;100282.42;;;7.83;43.19
64139;BME280;50435;43.700;-79.318;2023-04-28T10:59:25;100286.35;;;7.56;42.90
64139;BME280;50435;43.700;-79.318;2023-04-28T11:01:52;100289.60;;;6.24;42.99
64139;BME280;50435;43.700;-79.318;2023-04-28T11:04:19;100290.03;;;7.45;42.85
64139;BME280;50435;43.700;-79.318;2023-04-28T11:07:08;100288.85;;;6.47;42.70
64139;BME280;50435;43.700;-79.318;2023-04-28T11:09:51;100283.05;;;7.85;42.50
64139;BME280;50435;43.700;-79.318;2023-04-28T11:12:19;100286.98;;;7.77;42.33
64139;BME280;50435;43.700;-79.318;2023-04-28T11:14:47;100290.55;;;6.87;41.93
64139;BME280;50435;43.700;-79.318;2023-04-28T11:17:14;100293.32;;;7.93;41.73
64139;BME280;50435;43.700;-79.318;2023-04-28T11:19:42;100295.18;;;8.19;41.18
64139;BME280;50435;43.700;-79.318;2023-04-28T11:22:14;100300.10;;;8.14;41.09
64139;BME280;50435;43.700;-79.318;2023-04-28T11:24:54;100306.15;;;7.65;41.16
64139;BME280;50435;43.700;-79.318;2023-04-28T11:27:23;100302.58;;;8.43;40.73
64139;BME280;50435;43.700;-79.318;2023-04-28T11:29:50;100293.53;;;6.86;40.77
64139;BME280;50435;43.700;-79.318;2023-04-28T11:32:25;100287.61;;;8.35;40.56
64139;BME280;50435;43.700;-79.318;2023-04-28T11:34:53;100289.69;;;6.56;40.54
64139;BME280;50435;43.700;-79.318;2023-04-28T11:37:21;100293.45;;;8.41;40.37
64139;BME280;50435;43.700;-79.318;2023-04-28T11:39:49;100295.21;;;6.94;40.27
64139;BME280;50435;43.700;-79.318;2023-04-28T11:42:17;100297.68;;;8.58;39.95
64139;BME280;50435;43.700;-79.318;2023-04-28T11:44:49;100307.43;;;7.42;39.89
64139;BME280;50435;43.700;-79.318;2023-04-28T11:47:27;100314.09;;;8.61;39.98
64139;BME280;50435;43.700;-79.318;2023-04-28T11:49:55;100310.42;;;6.89;39.65
64139;BME280;50435;43.700;-79.318;2023-04-28T11:52:22;100309.11;;;8.86;39.47
64139;BME280;50435;43.700;-79.318;2023-04-28T11:54:53;100311.59;;;7.40;39.66
64139;BME280;50435;43.700;-79.318;2023-04-28T11:57:21;100311.36;;;8.75;40.09
64139;BME280;50435;43.700;-79.318;2023-04-28T11:59:49;100313.31;;;7.20;39.71
64139;BME280;50435;43.700;-79.318;2023-04-28T12:02:24;100313.98;;;8.90;39.87
64139;BME280;50435;43.700;-79.318;2023-04-28T12:04:52;100315.33;;;7.63;40.51
64139;BME280;50435;43.700;-79.318;2023-04-28T12:07:19;100318.80;;;8.36;40.19
64139;BME280;50435;43.700;-79.318;2023-04-28T12:12:36;100313.38;;;8.91;40.22
64139;BME280;50435;43.700;-79.318;2023-04-28T12:15:05;100311.55;;;8.49;40.51
64139;BME280;50435;43.700;-79.318;2023-04-28T12:17:35;100317.94;;;9.12;40.38
64139;BME280;50435;43.700;-79.318;2023-04-28T12:20:04;100315.34;;;8.63;40.27
64139;BME280;50435;43.700;-79.318;2023-04-28T12:22:43;100307.83;;;8.68;40.42
64139;BME280;50435;43.700;-79.318;2023-04-28T12:25:13;100311.72;;;8.53;40.35
64139;BME280;50435;43.700;-79.318;2023-04-28T12:27:57;100302.70;;;9.25;40.27
64139;BME280;50435;43.700;-79.318;2023-04-28T12:30:25;100300.06;;;9.48;40.56
64139;BME280;50435;43.700;-79.318;2023-04-28T12:32:54;100299.31;;;8.55;40.23
64139;BME280;50435;43.700;-79.318;2023-04-28T12:35:22;100300.72;;;8.92;40.95
64139;BME280;50435;43.700;-79.318;2023-04-28T12:37:50;100303.62;;;7.58;40.64
64139;BME280;50435;43.700;-79.318;2023-04-28T12:40:18;100296.46;;;8.97;40.83
64139;BME280;50435;43.700;-79.318;2023-04-28T12:42:45;100297.58;;;7.91;40.34
64139;BME280;50435;43.700;-79.318;2023-04-28T12:45:12;100301.66;;;9.28;39.88
64139;BME280;50435;43.700;-79.318;2023-04-28T12:47:40;100301.34;;;9.24;40.54